Terminal Aerodrome Forecast
Issued by NWS Cleveland, OH

Home | Current Version | Previous Version | Graphics & Text | Print | Product List | Glossary On
Versions: 1 2 3 4 5 6 7 8 9 10 11 12 13 14 15 16 17 18 19 20
345
FTUS41 KCLE 111012 AAA
TAFCAK
TAF AMD
KCAK 111012Z 1110/1206 28012KT 3SM -SHSN OVC025
      TEMPO 1110/1113 1SM -SHSN OVC015
     FM111400 30010KT P6SM -SHSN BKN025
     FM111800 30012KT P6SM BKN035
     FM112300 23005KT P6SM SCT035=

USA.gov is the U.S. government's official web portal to all federal, state and local government web resources and services.